sensor_id;sensor_type;location;lat;lon;timestamp;P1;durP1;ratioP1;P2;durP2;ratioP2
50281;SDS011;36176;51.506;10.272;2023-08-17T00:00:22;6.95;;;3.85;;
50281;SDS011;36176;51.506;10.272;2023-08-17T00:02:50;4.65;;;3.70;;
50281;SDS011;36176;51.506;10.272;2023-08-17T00:05:17;5.32;;;3.53;;
50281;SDS011;36176;51.506;10.272;2023-08-17T00:07:44;9.13;;;4.57;;
50281;SDS011;36176;51.506;10.272;2023-08-17T00:10:11;7.80;;;4.05;;
50281;SDS011;36176;51.506;10.272;2023-08-17T00:12:38;7.57;;;4.63;;
50281;SDS011;36176;51.506;10.272;2023-08-17T00:15:05;7.07;;;4.50;;
50281;SDS011;36176;51.506;10.272;2023-08-17T00:17:32;8.80;;;4.70;;
50281;SDS011;36176;51.506;10.272;2023-08-17T00:19:59;6.03;;;4.30;;
50281;SDS011;36176;51.506;10.272;2023-08-17T00:22:26;6.22;;;4.15;;
50281;SDS011;36176;51.506;10.272;2023-08-17T00:24:54;5.45;;;3.72;;
50281;SDS011;36176;51.506;10.272;2023-08-17T00:27:21;3.63;;;3.22;;
50281;SDS011;36176;51.506;10.272;2023-08-17T00:29:48;6.05;;;3.70;;
50281;SDS011;36176;51.506;10.272;2023-08-17T00:32:16;4.35;;;3.38;;
50281;SDS011;36176;51.506;10.272;2023-08-17T00:34:44;5.07;;;3.10;;
50281;SDS011;36176;51.506;10.272;2023-08-17T00:37:11;6.07;;;3.80;;
50281;SDS011;36176;51.506;10.272;2023-08-17T00:39:38;5.15;;;3.88;;
50281;SDS011;36176;51.506;10.272;2023-08-17T00:42:06;6.22;;;3.70;;
50281;SDS011;36176;51.506;10.272;2023-08-17T00:44:33;8.45;;;3.90;;
50281;SDS011;36176;51.506;10.272;2023-08-17T00:47:00;6.05;;;3.20;;
50281;SDS011;36176;51.506;10.272;2023-08-17T00:49:27;5.60;;;4.03;;
50281;SDS011;36176;51.506;10.272;2023-08-17T00:51:55;5.45;;;3.50;;
50281;SDS011;36176;51.506;10.272;2023-08-17T00:54:25;3.92;;;3.00;;
50281;SDS011;36176;51.506;10.272;2023-08-17T00:56:54;6.35;;;3.85;;
50281;SDS011;36176;51.506;10.272;2023-08-17T00:59:21;3.92;;;3.38;;
50281;SDS011;36176;51.506;10.272;2023-08-17T01:01:49;4.13;;;3.28;;
50281;SDS011;36176;51.506;10.272;2023-08-17T01:04:17;3.50;;;2.63;;
50281;SDS011;36176;51.506;10.272;2023-08-17T01:06:44;4.30;;;2.80;;
50281;SDS011;36176;51.506;10.272;2023-08-17T01:09:11;4.65;;;3.35;;
50281;SDS011;36176;51.506;10.272;2023-08-17T01:11:45;3.67;;;2.95;;
50281;SDS011;36176;51.506;10.272;2023-08-17T01:14:27;4.97;;;3.65;;
50281;SDS011;36176;51.506;10.272;2023-08-17T01:19:39;4.10;;;3.00;;
50281;SDS011;36176;51.506;10.272;2023-08-17T01:22:08;3.45;;;3.15;;
50281;SDS011;36176;51.506;10.272;2023-08-17T01:24:37;4.25;;;2.80;;
50281;SDS011;36176;51.506;10.272;2023-08-17T01:27:04;3.63;;;3.10;;
50281;SDS011;36176;51.506;10.272;2023-08-17T01:29:31;6.45;;;3.60;;
50281;SDS011;36176;51.506;10.272;2023-08-17T01:34:54;5.20;;;3.50;;
50281;SDS011;36176;51.506;10.272;2023-08-17T01:37:26;4.13;;;3.72;;
50281;SDS011;36176;51.506;10.272;2023-08-17T01:39:55;5.75;;;3.30;;
50281;SDS011;36176;51.506;10.272;2023-08-17T01:42:24;3.30;;;3.00;;
50281;SDS011;36176;51.506;10.272;2023-08-17T01:44:52;5.45;;;4.35;;
50281;SDS011;36176;51.506;10.272;2023-08-17T01:47:22;3.40;;;3.10;;
50281;SDS011;36176;51.506;10.272;2023-08-17T01:49:50;4.40;;;3.47;;
50281;SDS011;36176;51.506;10.272;2023-08-17T01:52:17;6.07;;;4.18;;
50281;SDS011;36176;51.506;10.272;2023-08-17T01:54:44;4.03;;;3.60;;
50281;SDS011;36176;51.506;10.272;2023-08-17T01:57:11;4.18;;;3.75;;
50281;SDS011;36176;51.506;10.272;2023-08-17T01:59:38;5.55;;;3.58;;
50281;SDS011;36176;51.506;10.272;2023-08-17T02:02:05;3.85;;;3.33;;
50281;SDS011;36176;51.506;10.272;2023-08-17T02:04:32;4.03;;;3.63;;
50281;SDS011;36176;51.506;10.272;2023-08-17T02:06:59;5.35;;;3.90;;
50281;SDS011;36176;51.506;10.272;2023-08-17T02:09:27;4.70;;;4.25;;
50281;SDS011;36176;51.506;10.272;2023-08-17T02:11:54;3.45;;;3.10;;
50281;SDS011;36176;51.506;10.272;2023-08-17T02:14:21;5.30;;;3.65;;
50281;SDS011;36176;51.506;10.272;2023-08-17T02:16:48;4.97;;;4.30;;
50281;SDS011;36176;51.506;10.272;2023-08-17T02:19:15;5.75;;;3.97;;
50281;SDS011;36176;51.506;10.272;2023-08-17T02:21:42;2.92;;;2.72;;
50281;SDS011;36176;51.506;10.272;2023-08-17T02:24:09;3.88;;;3.22;;
50281;SDS011;36176;51.506;10.272;2023-08-17T02:26:36;2.63;;;2.42;;
50281;SDS011;36176;51.506;10.272;2023-08-17T02:29:03;3.50;;;2.95;;
50281;SDS011;36176;51.506;10.272;2023-08-17T02:31:31;4.45;;;2.75;;
50281;SDS011;36176;51.506;10.272;2023-08-17T02:33:58;3.90;;;2.50;;
50281;SDS011;36176;51.506;10.272;2023-08-17T02:36:25;3.50;;;3.20;;
50281;SDS011;36176;51.506;10.272;2023-08-17T02:38:52;3.47;;;3.13;;
50281;SDS011;36176;51.506;10.272;2023-08-17T02:41:19;2.42;;;2.22;;
50281;SDS011;36176;51.506;10.272;2023-08-17T02:43:46;3.08;;;2.72;;
50281;SDS011;36176;51.506;10.272;2023-08-17T02:46:13;2.60;;;2.40;;
50281;SDS011;36176;51.506;10.272;2023-08-17T02:48:40;2.85;;;2.65;;
50281;SDS011;36176;51.506;10.272;2023-08-17T02:51:08;3.40;;;2.70;;
50281;SDS011;36176;51.506;10.272;2023-08-17T02:53:35;4.05;;;2.80;;
50281;SDS011;36176;51.506;10.272;2023-08-17T02:56:02;3.97;;;2.78;;
50281;SDS011;36176;51.506;10.272;2023-08-17T02:58:29;3.20;;;2.90;;
50281;SDS011;36176;51.506;10.272;2023-08-17T03:00:57;2.85;;;2.45;;
50281;SDS011;36176;51.506;10.272;2023-08-17T03:03:25;2.45;;;2.25;;
50281;SDS011;36176;51.506;10.272;2023-08-17T03:05:52;3.47;;;2.58;;
50281;SDS011;36176;51.506;10.272;2023-08-17T03:08:19;2.55;;;2.35;;
50281;SDS011;36176;51.506;10.272;2023-08-17T03:10:47;4.15;;;2.47;;
50281;SDS011;36176;51.506;10.272;2023-08-17T03:13:14;5.60;;;4.55;;
50281;SDS011;36176;51.506;10.272;2023-08-17T03:15:41;3.70;;;2.88;;
50281;SDS011;36176;51.506;10.272;2023-08-17T03:18:08;5.72;;;4.05;;
50281;SDS011;36176;51.506;10.272;2023-08-17T03:20:36;3.75;;;3.17;;
50281;SDS011;36176;51.506;10.272;2023-08-17T03:23:03;3.83;;;3.53;;
50281;SDS011;36176;51.506;10.272;2023-08-17T03:25:30;13.50;;;7.78;;
50281;SDS011;36176;51.506;10.272;2023-08-17T03:27:57;2.75;;;2.50;;
50281;SDS011;36176;51.506;10.272;2023-08-17T03:30:24;2.65;;;2.45;;
50281;SDS011;36176;51.506;10.272;2023-08-17T03:32:51;3.20;;;2.70;;
50281;SDS011;36176;51.506;10.272;2023-08-17T03:35:19;7.95;;;4.47;;
50281;SDS011;36176;51.506;10.272;2023-08-17T03:37:46;5.30;;;3.58;;
50281;SDS011;36176;51.506;10.272;2023-08-17T03:40:13;4.72;;;3.88;;
50281;SDS011;36176;51.506;10.272;2023-08-17T03:42:40;3.47;;;2.92;;
50281;SDS011;36176;51.506;10.272;2023-08-17T03:45:08;3.03;;;2.72;;
50281;SDS011;36176;51.506;10.272;2023-08-17T03:47:35;4.90;;;4.15;;
50281;SDS011;36176;51.506;10.272;2023-08-17T03:50:02;7.93;;;6.53;;
50281;SDS011;36176;51.506;10.272;2023-08-17T03:52:29;4.45;;;4.05;;
50281;SDS011;36176;51.506;10.272;2023-08-17T03:54:56;5.15;;;4.38;;
50281;SDS011;36176;51.506;10.272;2023-08-17T03:57:23;7.57;;;5.03;;
50281;SDS011;36176;51.506;10.272;2023-08-17T03:59:51;3.47;;;3.17;;
50281;SDS011;36176;51.506;10.272;2023-08-17T04:02:18;4.00;;;2.70;;
50281;SDS011;36176;51.506;10.272;2023-08-17T04:04:45;4.88;;;3.60;;
50281;SDS011;36176;51.506;10.272;2023-08-17T04:07:14;8.38;;;6.07;;
50281;SDS011;36176;51.506;10.272;2023-08-17T04:09:47;3.13;;;2.65;;
50281;SDS011;36176;51.506;10.272;2023-08-17T04:12:14;3.22;;;2.95;;
50281;SDS011;36176;51.506;10.272;2023-08-17T04:14:42;3.53;;;3.22;;
50281;SDS011;36176;51.506;10.272;2023-08-17T04:17:09;6.82;;;4.93;;
50281;SDS011;36176;51.506;10.272;2023-08-17T04:19:36;8.23;;;5.15;;
50281;SDS011;36176;51.506;10.272;2023-08-17T04:22:03;5.00;;;4.50;;
50281;SDS011;36176;51.506;10.272;2023-08-17T04:24:30;5.10;;;3.80;;
50281;SDS011;36176;51.506;10.272;2023-08-17T04:26:58;3.30;;;3.00;;
50281;SDS011;36176;51.506;10.272;2023-08-17T04:29:25;14.50;;;8.10;;
50281;SDS011;36176;51.506;10.272;2023-08-17T04:31:52;6.97;;;4.97;;
50281;SDS011;36176;51.506;10.272;2023-08-17T04:34:20;6.13;;;5.10;;
50281;SDS011;36176;51.506;10.272;2023-08-17T04:36:47;8.73;;;6.78;;
50281;SDS011;36176;51.506;10.272;2023-08-17T04:39:14;7.43;;;6.82;;
50281;SDS011;36176;51.506;10.272;2023-08-17T04:41:41;7.00;;;6.28;;
50281;SDS011;36176;51.506;10.272;2023-08-17T04:44:08;11.48;;;10.18;;
50281;SDS011;36176;51.506;10.272;2023-08-17T04:46:36;13.48;;;11.30;;
50281;SDS011;36176;51.506;10.272;2023-08-17T04:49:03;6.07;;;5.57;;
50281;SDS011;36176;51.506;10.272;2023-08-17T04:51:30;28.60;;;14.13;;
50281;SDS011;36176;51.506;10.272;2023-08-17T04:53:58;6.63;;;6.03;;
50281;SDS011;36176;51.506;10.272;2023-08-17T04:56:25;9.98;;;8.98;;
50281;SDS011;36176;51.506;10.272;2023-08-17T04:58:52;7.32;;;6.72;;
50281;SDS011;36176;51.506;10.272;2023-08-17T05:01:19;6.65;;;6.13;;
50281;SDS011;36176;51.506;10.272;2023-08-17T05:03:46;17.48;;;10.93;;
50281;SDS011;36176;51.506;10.272;2023-08-17T05:06:13;9.15;;;6.97;;
50281;SDS011;36176;51.506;10.272;2023-08-17T05:08:40;7.50;;;6.75;;
50281;SDS011;36176;51.506;10.272;2023-08-17T05:11:07;12.18;;;9.27;;
50281;SDS011;36176;51.506;10.272;2023-08-17T05:13:35;8.07;;;7.28;;
50281;SDS011;36176;51.506;10.272;2023-08-17T05:16:02;10.43;;;7.47;;
50281;SDS011;36176;51.506;10.272;2023-08-17T05:18:29;8.07;;;5.97;;
50281;SDS011;36176;51.506;10.272;2023-08-17T05:20:56;4.55;;;4.15;;
50281;SDS011;36176;51.506;10.272;2023-08-17T05:23:23;6.38;;;5.45;;
50281;SDS011;36176;51.506;10.272;2023-08-17T05:25:50;8.00;;;6.93;;
50281;SDS011;36176;51.506;10.272;2023-08-17T05:28:18;9.50;;;6.07;;
50281;SDS011;36176;51.506;10.272;2023-08-17T05:30:46;6.13;;;5.00;;
50281;SDS011;36176;51.506;10.272;2023-08-17T05:33:13;4.18;;;3.83;;
50281;SDS011;36176;51.506;10.272;2023-08-17T05:35:40;5.18;;;4.72;;
50281;SDS011;36176;51.506;10.272;2023-08-17T05:38:07;5.25;;;4.47;;
50281;SDS011;36176;51.506;10.272;2023-08-17T05:40:35;24.00;;;11.75;;
50281;SDS011;36176;51.506;10.272;2023-08-17T05:43:02;7.82;;;6.15;;
50281;SDS011;36176;51.506;10.272;2023-08-17T05:45:33;6.68;;;6.13;;
50281;SDS011;36176;51.506;10.272;2023-08-17T05:48:01;6.07;;;5.43;;
50281;SDS011;36176;51.506;10.272;2023-08-17T05:50:28;9.38;;;7.50;;
50281;SDS011;36176;51.506;10.272;2023-08-17T05:53:02;6.68;;;6.07;;
50281;SDS011;36176;51.506;10.272;2023-08-17T05:55:29;10.35;;;8.25;;
50281;SDS011;36176;51.506;10.272;2023-08-17T05:57:59;7.82;;;6.20;;
50281;SDS011;36176;51.506;10.272;2023-08-17T06:00:26;5.25;;;4.55;;
50281;SDS011;36176;51.506;10.272;2023-08-17T06:02:54;9.35;;;6.97;;
50281;SDS011;36176;51.506;10.272;2023-08-17T06:05:22;11.18;;;8.48;;
50281;SDS011;36176;51.506;10.272;2023-08-17T06:07:50;10.68;;;6.28;;
50281;SDS011;36176;51.506;10.272;2023-08-17T06:10:17;5.32;;;4.70;;
50281;SDS011;36176;51.506;10.272;2023-08-17T06:12:49;7.15;;;6.47;;
50281;SDS011;36176;51.506;10.272;2023-08-17T06:15:16;5.18;;;4.78;;
50281;SDS011;36176;51.506;10.272;2023-08-17T06:17:43;11.30;;;8.02;;
50281;SDS011;36176;51.506;10.272;2023-08-17T06:20:13;8.80;;;7.88;;
50281;SDS011;36176;51.506;10.272;2023-08-17T06:22:40;6.53;;;5.90;;
50281;SDS011;36176;51.506;10.272;2023-08-17T06:25:07;6.82;;;6.20;;
50281;SDS011;36176;51.506;10.272;2023-08-17T06:27:36;6.22;;;5.63;;
50281;SDS011;36176;51.506;10.272;2023-08-17T06:30:44;7.10;;;6.32;;
50281;SDS011;36176;51.506;10.272;2023-08-17T06:42:07;4.00;;;3.70;;
50281;SDS011;36176;51.506;10.272;2023-08-17T06:45:56;4.75;;;4.00;;
50281;SDS011;36176;51.506;10.272;2023-08-17T06:49:59;5.55;;;3.00;;
50281;SDS011;36176;51.506;10.272;2023-08-17T06:54:03;3.70;;;2.42;;
50281;SDS011;36176;51.506;10.272;2023-08-17T06:57:05;3.75;;;2.60;;
50281;SDS011;36176;51.506;10.272;2023-08-17T07:00:58;4.53;;;2.30;;
50281;SDS011;36176;51.506;10.272;2023-08-17T07:03:36;3.92;;;2.35;;
50281;SDS011;36176;51.506;10.272;2023-08-17T07:06:59;3.25;;;3.05;;
50281;SDS011;36176;51.506;10.272;2023-08-17T07:10:46;3.25;;;2.95;;
50281;SDS011;36176;51.506;10.272;2023-08-17T07:14:31;2.60;;;2.40;;
50281;SDS011;36176;51.506;10.272;2023-08-17T07:23:32;3.63;;;3.33;;
50281;SDS011;36176;51.506;10.272;2023-08-17T07:27:23;2.53;;;2.15;;
50281;SDS011;36176;51.506;10.272;2023-08-17T07:30:43;2.55;;;2.35;;
50281;SDS011;36176;51.506;10.272;2023-08-17T07:33:36;2.30;;;2.08;;
50281;SDS011;36176;51.506;10.272;2023-08-17T07:36:06;2.47;;;2.28;;
50281;SDS011;36176;51.506;10.272;2023-08-17T07:39:02;2.80;;;2.60;;
50281;SDS011;36176;51.506;10.272;2023-08-17T07:42:13;2.30;;;2.20;;
50281;SDS011;36176;51.506;10.272;2023-08-17T07:45:14;3.38;;;2.28;;
50281;SDS011;36176;51.506;10.272;2023-08-17T07:47:49;2.72;;;2.50;;
50281;SDS011;36176;51.506;10.272;2023-08-17T07:50:19;2.72;;;2.50;;
50281;SDS011;36176;51.506;10.272;2023-08-17T07:52:46;3.00;;;2.78;;
50281;SDS011;36176;51.506;10.272;2023-08-17T07:55:13;3.17;;;2.88;;
50281;SDS011;36176;51.506;10.272;2023-08-17T07:57:40;3.13;;;2.90;;
50281;SDS011;36176;51.506;10.272;2023-08-17T08:00:07;3.00;;;2.80;;
50281;SDS011;36176;51.506;10.272;2023-08-17T08:02:35;3.35;;;3.13;;
50281;SDS011;36176;51.506;10.272;2023-08-17T08:05:02;4.25;;;3.67;;
50281;SDS011;36176;51.506;10.272;2023-08-17T08:07:29;3.20;;;2.90;;
50281;SDS011;36176;51.506;10.272;2023-08-17T08:09:56;3.80;;;3.50;;
50281;SDS011;36176;51.506;10.272;2023-08-17T08:12:23;3.60;;;3.30;;
50281;SDS011;36176;51.506;10.272;2023-08-17T08:14:50;3.72;;;3.42;;
50281;SDS011;36176;51.506;10.272;2023-08-17T08:17:17;3.83;;;3.53;;
50281;SDS011;36176;51.506;10.272;2023-08-17T08:19:44;4.18;;;3.88;;
50281;SDS011;36176;51.506;10.272;2023-08-17T08:22:11;4.53;;;4.13;;
50281;SDS011;36176;51.506;10.272;2023-08-17T08:24:38;4.82;;;4.38;;
50281;SDS011;36176;51.506;10.272;2023-08-17T08:27:08;5.78;;;4.40;;
50281;SDS011;36176;51.506;10.272;2023-08-17T08:29:35;5.07;;;4.68;;
50281;SDS011;36176;51.506;10.272;2023-08-17T08:32:05;4.38;;;4.07;;
50281;SDS011;36176;51.506;10.272;2023-08-17T08:34:32;4.95;;;4.15;;
50281;SDS011;36176;51.506;10.272;2023-08-17T08:36:59;5.38;;;4.88;;
50281;SDS011;36176;51.506;10.272;2023-08-17T08:39:28;4.75;;;4.38;;
50281;SDS011;36176;51.506;10.272;2023-08-17T08:41:55;5.13;;;4.55;;
50281;SDS011;36176;51.506;10.272;2023-08-17T08:44:22;4.00;;;3.70;;
50281;SDS011;36176;51.506;10.272;2023-08-17T08:46:50;6.40;;;5.80;;
50281;SDS011;36176;51.506;10.272;2023-08-17T08:49:20;4.55;;;4.25;;
50281;SDS011;36176;51.506;10.272;2023-08-17T08:51:52;5.95;;;4.75;;
50281;SDS011;36176;51.506;10.272;2023-08-17T08:54:22;4.30;;;4.00;;
50281;SDS011;36176;51.506;10.272;2023-08-17T08:57:01;4.28;;;3.97;;
50281;SDS011;36176;51.506;10.272;2023-08-17T08:59:30;4.82;;;4.32;;
50281;SDS011;36176;51.506;10.272;2023-08-17T09:01:59;4.68;;;4.28;;
50281;SDS011;36176;51.506;10.272;2023-08-17T09:04:27;4.75;;;4.35;;
50281;SDS011;36176;51.506;10.272;2023-08-17T09:06:55;3.90;;;3.60;;
50281;SDS011;36176;51.506;10.272;2023-08-17T09:09:23;4.40;;;4.00;;
50281;SDS011;36176;51.506;10.272;2023-08-17T09:11:58;4.13;;;3.72;;
50281;SDS011;36176;51.506;10.272;2023-08-17T09:14:25;5.13;;;3.70;;
50281;SDS011;36176;51.506;10.272;2023-08-17T09:16:53;3.63;;;3.33;;
50281;SDS011;36176;51.506;10.272;2023-08-17T09:19:20;5.22;;;4.15;;
50281;SDS011;36176;51.506;10.272;2023-08-17T09:21:47;3.53;;;3.22;;
50281;SDS011;36176;51.506;10.272;2023-08-17T09:24:17;4.43;;;4.00;;
50281;SDS011;36176;51.506;10.272;2023-08-17T09:26:47;4.07;;;3.78;;
50281;SDS011;36176;51.506;10.272;2023-08-17T09:29:16;3.83;;;3.53;;
50281;SDS011;36176;51.506;10.272;2023-08-17T09:31:46;3.95;;;3.50;;
50281;SDS011;36176;51.506;10.272;2023-08-17T09:34:14;4.10;;;3.80;;
50281;SDS011;36176;51.506;10.272;2023-08-17T09:36:41;4.20;;;3.80;;
50281;SDS011;36176;51.506;10.272;2023-08-17T09:39:09;3.53;;;3.30;;
50281;SDS011;36176;51.506;10.272;2023-08-17T09:41:41;4.03;;;3.65;;
50281;SDS011;36176;51.506;10.272;2023-08-17T09:44:12;3.53;;;3.33;;
50281;SDS011;36176;51.506;10.272;2023-08-17T09:46:42;3.30;;;3.10;;
50281;SDS011;36176;51.506;10.272;2023-08-17T09:49:09;3.20;;;3.00;;
50281;SDS011;36176;51.506;10.272;2023-08-17T09:51:36;3.80;;;3.42;;
50281;SDS011;36176;51.506;10.272;2023-08-17T09:54:18;3.10;;;2.90;;
50281;SDS011;36176;51.506;10.272;2023-08-17T09:56:49;3.90;;;3.60;;
50281;SDS011;36176;51.506;10.272;2023-08-17T09:59:17;4.50;;;3.67;;
50281;SDS011;36176;51.506;10.272;2023-08-17T10:01:45;4.45;;;4.15;;
50281;SDS011;36176;51.506;10.272;2023-08-17T10:04:21;3.72;;;3.42;;
50281;SDS011;36176;51.506;10.272;2023-08-17T10:06:55;4.05;;;3.47;;
50281;SDS011;36176;51.506;10.272;2023-08-17T10:09:25;3.33;;;3.13;;
50281;SDS011;36176;51.506;10.272;2023-08-17T10:11:58;3.63;;;3.33;;
50281;SDS011;36176;51.506;10.272;2023-08-17T10:14:33;3.75;;;3.45;;
50281;SDS011;36176;51.506;10.272;2023-08-17T10:17:08;3.40;;;3.20;;
50281;SDS011;36176;51.506;10.272;2023-08-17T10:22:11;3.80;;;3.50;;
50281;SDS011;36176;51.506;10.272;2023-08-17T10:24:45;3.80;;;3.60;;
50281;SDS011;36176;51.506;10.272;2023-08-17T10:27:14;4.05;;;3.78;;
50281;SDS011;36176;51.506;10.272;2023-08-17T10:29:43;3.53;;;3.20;;
50281;SDS011;36176;51.506;10.272;2023-08-17T10:32:12;3.42;;;3.13;;
50281;SDS011;36176;51.506;10.272;2023-08-17T10:34:42;5.20;;;3.10;;
50281;SDS011;36176;51.506;10.272;2023-08-17T10:37:15;3.97;;;3.22;;
50281;SDS011;36176;51.506;10.272;2023-08-17T10:39:50;3.70;;;3.40;;
50281;SDS011;36176;51.506;10.272;2023-08-17T10:42:38;3.55;;;3.25;;
50281;SDS011;36176;51.506;10.272;2023-08-17T10:45:24;3.20;;;3.00;;
50281;SDS011;36176;51.506;10.272;2023-08-17T10:50:37;4.68;;;3.70;;
50281;SDS011;36176;51.506;10.272;2023-08-17T10:53:09;3.75;;;3.45;;
50281;SDS011;36176;51.506;10.272;2023-08-17T10:55:38;3.75;;;3.33;;
50281;SDS011;36176;51.506;10.272;2023-08-17T10:58:07;3.67;;;3.38;;
50281;SDS011;36176;51.506;10.272;2023-08-17T11:00:42;3.63;;;3.30;;
50281;SDS011;36176;51.506;10.272;2023-08-17T11:03:10;4.07;;;2.90;;
50281;SDS011;36176;51.506;10.272;2023-08-17T11:05:53;3.53;;;3.22;;
50281;SDS011;36176;51.506;10.272;2023-08-17T11:08:27;3.30;;;3.10;;
50281;SDS011;36176;51.506;10.272;2023-08-17T11:11:11;3.35;;;3.05;;
50281;SDS011;36176;51.506;10.272;2023-08-17T11:13:40;3.10;;;2.90;;
50281;SDS011;36176;51.506;10.272;2023-08-17T11:16:12;4.47;;;3.22;;
50281;SDS011;36176;51.506;10.272;2023-08-17T11:18:44;4.97;;;3.00;;
50281;SDS011;36176;51.506;10.272;2023-08-17T11:21:12;3.40;;;3.10;;
50281;SDS011;36176;51.506;10.272;2023-08-17T11:23:45;3.45;;;3.15;;
50281;SDS011;36176;51.506;10.272;2023-08-17T11:26:17;3.20;;;3.00;;
50281;SDS011;36176;51.506;10.272;2023-08-17T11:28:45;3.30;;;3.00;;
50281;SDS011;36176;51.506;10.272;2023-08-17T11:31:15;3.42;;;3.13;;
50281;SDS011;36176;51.506;10.272;2023-08-17T11:33:43;3.33;;;3.13;;
50281;SDS011;36176;51.506;10.272;2023-08-17T11:36:10;3.15;;;2.95;;
50281;SDS011;36176;51.506;10.272;2023-08-17T11:38:40;3.45;;;3.20;;
50281;SDS011;36176;51.506;10.272;2023-08-17T11:41:09;3.30;;;3.10;;
50281;SDS011;36176;51.506;10.272;2023-08-17T11:43:42;3.33;;;3.13;;
50281;SDS011;36176;51.506;10.272;2023-08-17T11:46:09;3.42;;;3.10;;
50281;SDS011;36176;51.506;10.272;2023-08-17T11:48:38;3.35;;;3.15;;
50281;SDS011;36176;51.506;10.272;2023-08-17T11:51:05;3.92;;;2.78;;
50281;SDS011;36176;51.506;10.272;2023-08-17T11:53:33;3.70;;;3.40;;
50281;SDS011;36176;51.506;10.272;2023-08-17T11:56:07;3.50;;;3.20;;
50281;SDS011;36176;51.506;10.272;2023-08-17T11:58:44;3.75;;;3.10;;
50281;SDS011;36176;51.506;10.272;2023-08-17T12:01:13;3.10;;;2.90;;
50281;SDS011;36176;51.506;10.272;2023-08-17T12:09:23;3.70;;;3.40;;
50281;SDS011;36176;51.506;10.272;2023-08-17T12:11:58;4.10;;;3.63;;
50281;SDS011;36176;51.506;10.272;2023-08-17T12:14:27;3.47;;;3.25;;
50281;SDS011;36176;51.506;10.272;2023-08-17T12:16:56;4.20;;;3.55;;
50281;SDS011;36176;51.506;10.272;2023-08-17T12:19:27;3.65;;;3.45;;
50281;SDS011;36176;51.506;10.272;2023-08-17T12:21:54;5.45;;;4.90;;
50281;SDS011;36176;51.506;10.272;2023-08-17T12:24:23;3.83;;;3.53;;
50281;SDS011;36176;51.506;10.272;2023-08-17T12:26:51;3.33;;;3.08;;
50281;SDS011;36176;51.506;10.272;2023-08-17T12:29:20;3.75;;;3.42;;
50281;SDS011;36176;51.506;10.272;2023-08-17T12:31:47;3.80;;;3.50;;
50281;SDS011;36176;51.506;10.272;2023-08-17T12:34:17;3.83;;;3.45;;
50281;SDS011;36176;51.506;10.272;2023-08-17T12:36:44;3.50;;;3.30;;
50281;SDS011;36176;51.506;10.272;2023-08-17T12:39:11;3.70;;;3.40;;
50281;SDS011;36176;51.506;10.272;2023-08-17T12:41:38;3.92;;;3.63;;
50281;SDS011;36176;51.506;10.272;2023-08-17T12:44:05;4.00;;;3.70;;
50281;SDS011;36176;51.506;10.272;2023-08-17T12:46:32;2.92;;;2.72;;
50281;SDS011;36176;51.506;10.272;2023-08-17T12:49:00;3.55;;;3.25;;
50281;SDS011;36176;51.506;10.272;2023-08-17T12:51:29;4.20;;;3.25;;
50281;SDS011;36176;51.506;10.272;2023-08-17T12:53:57;3.75;;;3.45;;
50281;SDS011;36176;51.506;10.272;2023-08-17T12:56:24;3.70;;;3.40;;
50281;SDS011;36176;51.506;10.272;2023-08-17T12:58:52;3.60;;;3.30;;
50281;SDS011;36176;51.506;10.272;2023-08-17T13:01:19;5.30;;;3.20;;
50281;SDS011;36176;51.506;10.272;2023-08-17T13:03:46;3.58;;;3.10;;
50281;SDS011;36176;51.506;10.272;2023-08-17T13:06:14;3.35;;;3.05;;
50281;SDS011;36176;51.506;10.272;2023-08-17T13:08:43;4.68;;;3.65;;
50281;SDS011;36176;51.506;10.272;2023-08-17T13:11:10;3.95;;;3.65;;
50281;SDS011;36176;51.506;10.272;2023-08-17T13:13:39;3.40;;;3.10;;
50281;SDS011;36176;51.506;10.272;2023-08-17T13:16:07;3.40;;;3.10;;
50281;SDS011;36176;51.506;10.272;2023-08-17T13:18:34;3.85;;;3.20;;
50281;SDS011;36176;51.506;10.272;2023-08-17T13:21:01;5.05;;;4.03;;
50281;SDS011;36176;51.506;10.272;2023-08-17T13:23:28;3.28;;;3.00;;
50281;SDS011;36176;51.506;10.272;2023-08-17T13:25:55;2.78;;;2.58;;
50281;SDS011;36176;51.506;10.272;2023-08-17T13:28:23;3.15;;;2.95;;
50281;SDS011;36176;51.506;10.272;2023-08-17T13:30:50;3.40;;;3.10;;
50281;SDS011;36176;51.506;10.272;2023-08-17T13:33:17;3.10;;;2.90;;
50281;SDS011;36176;51.506;10.272;2023-08-17T13:35:44;3.63;;;3.28;;
50281;SDS011;36176;51.506;10.272;2023-08-17T13:38:12;4.68;;;3.20;;
50281;SDS011;36176;51.506;10.272;2023-08-17T13:40:39;5.05;;;3.25;;
50281;SDS011;36176;51.506;10.272;2023-08-17T13:43:06;4.07;;;3.30;;
50281;SDS011;36176;51.506;10.272;2023-08-17T13:45:33;3.50;;;3.00;;
50281;SDS011;36176;51.506;10.272;2023-08-17T13:48:00;3.05;;;2.85;;
50281;SDS011;36176;51.506;10.272;2023-08-17T13:50:27;3.00;;;2.80;;
50281;SDS011;36176;51.506;10.272;2023-08-17T13:52:54;4.03;;;2.53;;
50281;SDS011;36176;51.506;10.272;2023-08-17T13:55:21;3.70;;;2.80;;
50281;SDS011;36176;51.506;10.272;2023-08-17T13:57:50;4.00;;;2.55;;
50281;SDS011;36176;51.506;10.272;2023-08-17T14:00:17;3.58;;;2.70;;
50281;SDS011;36176;51.506;10.272;2023-08-17T14:02:44;4.53;;;2.90;;
50281;SDS011;36176;51.506;10.272;2023-08-17T14:05:11;7.25;;;2.78;;
50281;SDS011;36176;51.506;10.272;2023-08-17T14:07:38;7.07;;;2.90;;
50281;SDS011;36176;51.506;10.272;2023-08-17T14:10:05;2.97;;;2.75;;
50281;SDS011;36176;51.506;10.272;2023-08-17T14:12:41;2.70;;;2.50;;
50281;SDS011;36176;51.506;10.272;2023-08-17T14:15:09;3.20;;;2.90;;
50281;SDS011;36176;51.506;10.272;2023-08-17T14:17:36;3.00;;;2.80;;
50281;SDS011;36176;51.506;10.272;2023-08-17T14:20:03;3.17;;;2.65;;
50281;SDS011;36176;51.506;10.272;2023-08-17T14:22:31;2.70;;;2.50;;
50281;SDS011;36176;51.506;10.272;2023-08-17T14:24:58;3.10;;;2.70;;
50281;SDS011;36176;51.506;10.272;2023-08-17T14:27:25;3.00;;;2.78;;
50281;SDS011;36176;51.506;10.272;2023-08-17T14:29:52;3.00;;;2.80;;
50281;SDS011;36176;51.506;10.272;2023-08-17T14:32:20;3.25;;;2.72;;
50281;SDS011;36176;51.506;10.272;2023-08-17T14:34:47;3.20;;;2.50;;
50281;SDS011;36176;51.506;10.272;2023-08-17T14:37:14;2.75;;;2.55;;
50281;SDS011;36176;51.506;10.272;2023-08-17T14:39:41;4.22;;;2.60;;
50281;SDS011;36176;51.506;10.272;2023-08-17T14:42:08;3.85;;;2.70;;
50281;SDS011;36176;51.506;10.272;2023-08-17T14:44:35;2.40;;;2.20;;
50281;SDS011;36176;51.506;10.272;2023-08-17T14:47:02;2.50;;;2.30;;
50281;SDS011;36176;51.506;10.272;2023-08-17T14:49:29;2.92;;;2.72;;
50281;SDS011;36176;51.506;10.272;2023-08-17T14:51:57;2.75;;;2.50;;
50281;SDS011;36176;51.506;10.272;2023-08-17T14:54:24;2.50;;;2.30;;
50281;SDS011;36176;51.506;10.272;2023-08-17T14:56:51;2.75;;;2.35;;
50281;SDS011;36176;51.506;10.272;2023-08-17T14:59:23;2.75;;;2.55;;
50281;SDS011;36176;51.506;10.272;2023-08-17T15:01:50;2.55;;;2.35;;
50281;SDS011;36176;51.506;10.272;2023-08-17T15:04:17;2.20;;;2.00;;
50281;SDS011;36176;51.506;10.272;2023-08-17T15:06:44;3.90;;;2.30;;
50281;SDS011;36176;51.506;10.272;2023-08-17T15:09:11;2.63;;;2.42;;
50281;SDS011;36176;51.506;10.272;2023-08-17T15:11:38;2.53;;;2.33;;
50281;SDS011;36176;51.506;10.272;2023-08-17T15:14:05;2.60;;;2.40;;
50281;SDS011;36176;51.506;10.272;2023-08-17T15:16:33;2.30;;;2.20;;
50281;SDS011;36176;51.506;10.272;2023-08-17T15:19:00;2.13;;;2.00;;
50281;SDS011;36176;51.506;10.272;2023-08-17T15:21:27;2.17;;;2.05;;
50281;SDS011;36176;51.506;10.272;2023-08-17T15:23:54;2.30;;;2.10;;
50281;SDS011;36176;51.506;10.272;2023-08-17T15:26:21;2.47;;;2.25;;